createdAt,value
2022-08-07T00:02:35.418Z,1.95
2022-08-07T00:04:06.225Z,1.85
2022-08-07T00:06:36.053Z,1.80
2022-08-07T00:09:16.101Z,1.42
2022-08-07T00:11:53.882Z,1.88
2022-08-07T00:14:25.506Z,1.92
2022-08-07T00:16:57.517Z,2.33
2022-08-07T00:19:26.191Z,1.92
2022-08-07T00:22:10.767Z,1.90
2022-08-07T00:24:38.649Z,2.33
2022-08-07T00:27:07.257Z,1.77
2022-08-07T00:29:37.058Z,1.50
2022-08-07T00:32:05.913Z,1.85
2022-08-07T00:34:35.648Z,2.33
2022-08-07T00:37:05.078Z,1.55
2022-08-07T00:39:34.009Z,1.80
2022-08-07T00:42:02.350Z,1.58
2022-08-07T00:44:33.538Z,1.50
2022-08-07T00:47:06.571Z,1.50
2022-08-07T00:50:19.509Z,1.70
2022-08-07T00:52:29.444Z,1.50
2022-08-07T00:55:00.016Z,1.65
2022-08-07T00:57:34.103Z,1.70
2022-08-07T01:00:01.098Z,1.60
2022-08-07T01:02:29.753Z,1.58
2022-08-07T01:04:58.567Z,1.77
2022-08-07T01:07:28.587Z,1.73
2022-08-07T01:10:07.011Z,1.70
2022-08-07T01:12:53.349Z,2.50
2022-08-07T01:15:35.752Z,1.58
2022-08-07T01:18:16.915Z,1.70
2022-08-07T01:20:59.617Z,1.90
2022-08-07T01:23:38.559Z,1.95
2022-08-07T01:26:12.079Z,1.83
2022-08-07T01:28:49.830Z,2.28
2022-08-07T01:31:27.840Z,1.80
2022-08-07T01:34:09.000Z,1.58
2022-08-07T01:36:40.858Z,1.83
2022-08-07T01:39:13.989Z,1.75
2022-08-07T01:42:07.735Z,1.77
2022-08-07T01:44:34.877Z,1.75
2022-08-07T01:48:16.399Z,2.03
2022-08-07T01:49:53.656Z,2.10
2022-08-07T01:52:26.641Z,2.00
2022-08-07T01:54:56.244Z,2.03
2022-08-07T01:58:06.820Z,2.03
2022-08-07T02:00:28.893Z,2.00
2022-08-07T02:03:12.247Z,2.00
2022-08-07T02:06:02.310Z,2.20
2022-08-07T02:08:41.024Z,2.20
2022-08-07T02:11:10.502Z,2.58
2022-08-07T02:14:02.350Z,3.05
2022-08-07T02:16:33.708Z,2.00
2022-08-07T02:20:05.206Z,1.92
2022-08-07T02:22:01.709Z,1.85
2022-08-07T02:24:30.304Z,1.80
2022-08-07T02:27:01.269Z,1.85
2022-08-07T02:29:30.573Z,1.80
2022-08-07T02:32:00.898Z,1.70
2022-08-07T02:34:29.236Z,1.67
2022-08-07T02:37:00.278Z,1.70
2022-08-07T02:40:01.597Z,2.38
2022-08-07T02:42:19.706Z,2.08
2022-08-07T02:44:50.162Z,2.45
2022-08-07T02:47:23.716Z,1.80
2022-08-07T02:49:59.655Z,2.58
2022-08-07T02:53:03.724Z,2.10
2022-08-07T02:56:02.202Z,1.83
2022-08-07T02:58:27.171Z,2.00
2022-08-07T03:00:57.983Z,1.60
2022-08-07T03:03:42.107Z,1.70
2022-08-07T03:06:26.300Z,2.20
2022-08-07T03:09:05.932Z,2.45
2022-08-07T03:11:38.703Z,2.08
2022-08-07T03:14:07.605Z,1.60
2022-08-07T03:16:35.650Z,1.65
2022-08-07T03:19:03.523Z,1.63
2022-08-07T03:21:32.817Z,1.80
2022-08-07T03:24:19.720Z,1.90
2022-08-07T03:26:57.868Z,2.00
2022-08-07T03:29:34.023Z,1.60
2022-08-07T03:32:08.443Z,1.95
2022-08-07T03:34:47.318Z,1.80
2022-08-07T03:37:32.676Z,1.75
2022-08-07T03:40:15.731Z,2.67
2022-08-07T03:42:44.431Z,1.90
2022-08-07T03:45:30.310Z,1.95
2022-08-07T03:48:04.365Z,2.10
2022-08-07T03:50:37.520Z,1.85
2022-08-07T03:53:05.284Z,1.55
2022-08-07T03:55:57.321Z,1.80
2022-08-07T03:59:06.825Z,2.13
2022-08-07T04:01:11.468Z,1.75
2022-08-07T04:03:53.690Z,2.28
2022-08-07T04:06:38.400Z,2.03
2022-08-07T04:09:15.382Z,2.40
2022-08-07T04:12:21.519Z,1.90
2022-08-07T04:14:37.322Z,1.98
2022-08-07T04:17:20.518Z,1.90
2022-08-07T04:19:54.141Z,2.50
2022-08-07T04:22:27.464Z,1.80
2022-08-07T04:24:58.643Z,2.38
2022-08-07T04:27:27.633Z,2.10
2022-08-07T04:30:02.361Z,2.30
2022-08-07T04:32:58.650Z,2.30
2022-08-07T04:35:35.335Z,2.30
2022-08-07T04:38:11.556Z,2.13
2022-08-07T04:40:52.203Z,2.95
2022-08-07T04:44:12.364Z,2.90
2022-08-07T04:50:04.058Z,2.40
2022-08-07T04:52:51.189Z,2.08
2022-08-07T04:58:13.157Z,2.20
2022-08-07T04:59:01.582Z,2.95
2022-08-07T05:02:05.474Z,2.50
2022-08-07T05:05:11.847Z,2.30
2022-08-07T05:08:00.457Z,2.50
2022-08-07T05:10:30.865Z,2.83
2022-08-07T05:13:10.099Z,3.08
2022-08-07T05:15:57.957Z,2.55
2022-08-07T05:18:30.763Z,2.55
2022-08-07T05:21:05.854Z,2.67
2022-08-07T05:23:45.714Z,3.03
2022-08-07T05:26:24.107Z,2.67
2022-08-07T05:28:57.837Z,2.35
2022-08-07T05:31:35.277Z,2.80
2022-08-07T05:34:11.267Z,1.75
2022-08-07T05:36:44.017Z,1.85
2022-08-07T05:40:05.842Z,2.30
2022-08-07T05:42:33.244Z,2.03
2022-08-07T05:45:14.149Z,2.10
2022-08-07T05:48:02.585Z,1.50
2022-08-07T05:50:43.321Z,1.83
2022-08-07T05:54:12.678Z,1.70
2022-08-07T05:56:03.478Z,1.38
2022-08-07T05:58:37.675Z,1.70
2022-08-07T06:01:11.011Z,1.63
2022-08-07T06:03:56.715Z,1.40
2022-08-07T06:06:29.766Z,1.30
2022-08-07T06:09:04.373Z,1.75
2022-08-07T06:11:32.648Z,1.30
2022-08-07T06:14:12.652Z,1.50
2022-08-07T06:16:50.207Z,1.98
2022-08-07T06:19:58.016Z,1.70
2022-08-07T06:22:23.551Z,1.10
2022-08-07T06:25:02.939Z,1.00
2022-08-07T06:27:54.408Z,1.23
2022-08-07T06:30:32.119Z,1.08
2022-08-07T06:33:10.046Z,1.10
2022-08-07T06:35:47.690Z,1.30
2022-08-07T06:38:31.028Z,1.30
2022-08-07T06:41:00.447Z,1.25
2022-08-07T06:43:39.793Z,1.38
2022-08-07T06:46:15.397Z,1.05
2022-08-07T06:48:57.965Z,1.20
2022-08-07T06:51:33.279Z,1.10
2022-08-07T06:55:27.735Z,0.95
2022-08-07T06:56:54.547Z,0.77
2022-08-07T07:02:49.280Z,0.80
2022-08-07T07:05:12.581Z,0.80
2022-08-07T07:07:59.963Z,0.57
2022-08-07T07:10:31.355Z,0.90
2022-08-07T07:13:04.108Z,1.00
2022-08-07T07:15:37.737Z,0.73
2022-08-07T07:18:09.864Z,0.70
2022-08-07T07:20:46.345Z,1.40
2022-08-07T07:24:10.936Z,0.57
2022-08-07T07:26:35.842Z,0.52
2022-08-07T07:29:57.100Z,0.60
2022-08-07T07:31:48.318Z,0.70
2022-08-07T07:34:21.266Z,0.70
2022-08-07T07:36:52.738Z,0.70
2022-08-07T07:39:25.493Z,0.50
2022-08-07T07:42:08.847Z,0.60
2022-08-07T07:44:44.583Z,0.70
2022-08-07T07:47:22.868Z,0.68
2022-08-07T07:50:33.336Z,0.60
2022-08-07T07:52:41.280Z,0.80
2022-08-07T07:55:10.946Z,0.60
2022-08-07T07:57:53.354Z,0.65
2022-08-07T08:00:29.667Z,0.70
2022-08-07T08:03:09.314Z,0.90
2022-08-07T08:05:55.053Z,0.68
2022-08-07T08:08:35.314Z,0.50
2022-08-07T08:11:06.008Z,0.60
2022-08-07T08:13:53.742Z,0.63
2022-08-07T08:16:29.885Z,0.93
2022-08-07T08:19:00.466Z,0.98
2022-08-07T08:22:03.402Z,0.77
2022-08-07T08:24:57.144Z,0.85
2022-08-07T08:27:41.481Z,0.52
2022-08-07T08:30:24.386Z,0.60
2022-08-07T08:32:54.252Z,0.52
2022-08-07T08:35:25.478Z,0.60
2022-08-07T08:38:03.610Z,0.43
2022-08-07T08:40:40.447Z,0.60
2022-08-07T08:43:17.788Z,0.93
2022-08-07T08:45:59.129Z,0.70
2022-08-07T08:48:38.389Z,0.50
2022-08-07T08:52:01.141Z,1.40
2022-08-07T08:54:38.415Z,0.65
2022-08-07T08:57:11.387Z,0.55
2022-08-07T09:00:09.524Z,0.40
2022-08-07T09:02:38.914Z,0.40
2022-08-07T09:05:37.610Z,0.30
2022-08-07T09:08:39.266Z,0.60
2022-08-07T09:11:24.159Z,0.50
2022-08-07T09:14:11.016Z,0.40
2022-08-07T09:16:47.659Z,0.60
2022-08-07T09:19:51.378Z,0.50
2022-08-07T09:24:53.771Z,0.50
2022-08-07T09:25:53.439Z,0.47
2022-08-07T09:30:00.764Z,0.40
2022-08-07T09:31:49.228Z,0.40
2022-08-07T09:34:37.633Z,0.50
2022-08-07T09:37:48.434Z,0.40
2022-08-07T09:40:30.159Z,0.60
2022-08-07T09:43:40.129Z,0.30
2022-08-07T09:47:52.426Z,0.40
2022-08-07T09:49:59.444Z,0.40
2022-08-07T09:52:34.302Z,0.30
2022-08-07T09:55:29.016Z,0.47
2022-08-07T09:58:34.433Z,0.40
2022-08-07T10:01:51.439Z,0.45
2022-08-07T10:04:39.469Z,0.50
2022-08-07T10:07:26.090Z,0.60
2022-08-07T10:10:02.855Z,0.40
2022-08-07T10:13:55.250Z,0.63
2022-08-07T10:16:22.967Z,0.43
2022-08-07T10:19:11.077Z,0.73
2022-08-07T10:22:14.587Z,0.52
2022-08-07T10:25:03.188Z,0.55
2022-08-07T10:27:58.816Z,0.57
2022-08-07T10:30:56.298Z,0.20
2022-08-07T10:34:05.625Z,0.40
2022-08-07T10:37:12.726Z,0.30
2022-08-07T10:40:21.703Z,0.30
2022-08-07T10:43:15.325Z,0.40
2022-08-07T10:45:58.211Z,0.30
2022-08-07T10:48:55.259Z,0.30
2022-08-07T10:52:01.605Z,0.52
2022-08-07T10:55:00.786Z,0.40
2022-08-07T10:57:46.170Z,0.30
2022-08-07T11:00:36.157Z,0.30
2022-08-07T11:03:12.810Z,0.32
2022-08-07T11:08:42.609Z,0.40
2022-08-07T11:11:14.003Z,0.25
2022-08-07T11:14:43.662Z,0.30
2022-08-07T11:16:52.840Z,0.38
2022-08-07T11:19:37.093Z,0.30
2022-08-07T11:22:37.034Z,0.30
2022-08-07T11:25:49.759Z,0.30
2022-08-07T11:28:34.086Z,0.30
2022-08-07T11:31:33.228Z,0.32
2022-08-07T11:34:16.534Z,0.45
2022-08-07T11:37:02.727Z,0.22
2022-08-07T11:42:52.791Z,0.20
2022-08-07T11:45:38.160Z,0.28
2022-08-07T11:49:28.686Z,0.22
2022-08-07T11:51:46.818Z,0.20
2022-08-07T11:54:54.865Z,0.40
2022-08-07T11:57:57.710Z,0.30
2022-08-07T12:00:29.321Z,0.30
2022-08-07T12:03:41.942Z,0.25
2022-08-07T12:06:39.070Z,0.27
2022-08-07T12:09:22.995Z,0.38
2022-08-07T12:12:12.305Z,0.73
2022-08-07T12:14:56.313Z,0.30
2022-08-07T12:17:59.447Z,0.40
2022-08-07T12:20:45.734Z,0.35
2022-08-07T12:24:05.444Z,0.50
2022-08-07T12:29:38.103Z,0.28
2022-08-07T12:32:15.597Z,0.40
2022-08-07T12:34:49.345Z,0.28
2022-08-07T12:37:27.996Z,0.50
2022-08-07T12:40:24.174Z,0.20
2022-08-07T12:43:01.618Z,0.28
2022-08-07T12:45:53.150Z,0.45
2022-08-07T12:48:52.860Z,0.47
2022-08-07T12:51:46.592Z,0.40
2022-08-07T12:54:38.281Z,0.30
2022-08-07T12:57:09.521Z,0.28
2022-08-07T12:59:54.676Z,0.40
2022-08-07T13:03:06.976Z,0.57
2022-08-07T13:06:21.987Z,0.25
2022-08-07T13:09:12.715Z,0.40
2022-08-07T13:12:21.878Z,0.50
2022-08-07T13:15:14.307Z,0.40
2022-08-07T13:17:59.586Z,0.30
2022-08-07T13:20:39.114Z,0.40
2022-08-07T13:24:01.872Z,0.60
2022-08-07T13:26:15.998Z,0.30
2022-08-07T13:29:08.888Z,0.25
2022-08-07T13:31:55.030Z,0.30
2022-08-07T13:34:44.797Z,0.40
2022-08-07T13:37:27.430Z,0.40
2022-08-07T13:40:36.239Z,0.30
2022-08-07T13:43:13.526Z,0.50
2022-08-07T13:46:10.905Z,0.40
2022-08-07T13:48:35.019Z,0.30
2022-08-07T13:51:27.413Z,0.35
2022-08-07T13:54:02.105Z,0.30
2022-08-07T13:59:25.703Z,0.30
2022-08-07T14:02:29.790Z,0.47
2022-08-07T14:05:09.235Z,0.30
2022-08-07T14:07:59.672Z,0.30
2022-08-07T14:10:42.079Z,0.32
2022-08-07T14:13:16.236Z,1.10
2022-08-07T14:15:44.439Z,0.30
2022-08-07T14:18:29.252Z,0.30
2022-08-07T14:21:08.290Z,0.30
2022-08-07T14:23:58.991Z,0.47
2022-08-07T14:26:32.409Z,0.30
2022-08-07T14:29:08.615Z,0.50
2022-08-07T14:31:57.786Z,0.60
2022-08-07T14:34:30.362Z,0.32
2022-08-07T14:37:01.727Z,0.43
2022-08-07T14:40:15.759Z,0.40
2022-08-07T14:42:24.893Z,0.38
2022-08-07T14:44:59.895Z,0.40
2022-08-07T14:47:44.927Z,0.60
2022-08-07T14:50:19.111Z,0.80
2022-08-07T14:52:47.854Z,0.50
2022-08-07T14:55:18.036Z,0.40
2022-08-07T14:57:58.326Z,0.43
2022-08-07T15:00:39.392Z,0.60
2022-08-07T15:03:16.530Z,0.60
2022-08-07T15:05:54.230Z,0.40
2022-08-07T15:08:32.407Z,0.47
2022-08-07T15:11:06.208Z,0.30
2022-08-07T15:13:37.820Z,0.30
2022-08-07T15:19:00.716Z,0.50
2022-08-07T15:21:44.041Z,0.30
2022-08-07T15:25:14.673Z,0.55
2022-08-07T15:27:07.020Z,0.40
2022-08-07T15:30:09.322Z,0.43
2022-08-07T15:36:01.782Z,0.60
2022-08-07T15:38:31.170Z,0.85
2022-08-07T15:41:23.568Z,0.40
2022-08-07T15:44:01.246Z,0.50
2022-08-07T15:46:32.284Z,0.55
2022-08-07T15:49:12.724Z,0.45
2022-08-07T15:54:34.625Z,0.60
2022-08-07T15:57:39.689Z,0.80
2022-08-07T16:00:04.429Z,0.50
2022-08-07T16:02:41.430Z,0.60
2022-08-07T16:05:20.048Z,0.63
2022-08-07T16:08:31.068Z,0.80
2022-08-07T16:10:48.787Z,0.70
2022-08-07T16:13:58.064Z,1.00
2022-08-07T16:16:48.222Z,0.90
2022-08-07T16:19:58.680Z,0.60
2022-08-07T16:22:33.715Z,0.70
2022-08-07T16:25:22.991Z,1.00
2022-08-07T16:30:08.899Z,0.88
2022-08-07T16:31:50.174Z,0.60
2022-08-07T16:34:27.526Z,0.80
2022-08-07T16:38:03.681Z,0.68
2022-08-07T16:40:36.308Z,0.70
2022-08-07T16:44:05.843Z,0.80
2022-08-07T16:47:16.044Z,0.77
2022-08-07T16:50:38.764Z,1.15
2022-08-07T16:54:01.603Z,0.90
2022-08-07T16:56:37.430Z,1.23
2022-08-07T16:59:24.519Z,1.13
2022-08-07T17:02:13.733Z,0.70
2022-08-07T17:06:18.944Z,1.20
2022-08-07T17:08:05.785Z,0.80
2022-08-07T17:10:39.208Z,0.82
2022-08-07T17:13:24.911Z,0.70
2022-08-07T17:16:33.741Z,0.82
2022-08-07T17:19:15.734Z,1.10
2022-08-07T17:21:55.449Z,0.70
2022-08-07T17:24:43.016Z,0.80
2022-08-07T17:27:35.767Z,0.80
2022-08-07T17:30:15.733Z,0.73
2022-08-07T17:34:09.586Z,0.95
2022-08-07T17:35:55.908Z,0.85
2022-08-07T17:38:35.207Z,1.23
2022-08-07T17:42:03.051Z,0.90
2022-08-07T17:44:45.595Z,0.85
2022-08-07T17:47:42.273Z,0.77
2022-08-07T17:50:23.357Z,0.90
2022-08-07T17:53:05.894Z,0.70
2022-08-07T17:56:00.566Z,0.63
2022-08-07T17:58:50.068Z,0.80
2022-08-07T18:01:26.672Z,0.70
2022-08-07T18:04:16.313Z,0.70
2022-08-07T18:07:19.155Z,0.70
2022-08-07T18:10:06.862Z,0.80
2022-08-07T18:12:39.967Z,1.05
2022-08-07T18:15:42.804Z,0.93
2022-08-07T18:19:02.717Z,0.77
2022-08-07T18:21:38.297Z,0.80
2022-08-07T18:24:11.936Z,1.00
2022-08-07T18:27:38.785Z,1.00
2022-08-07T18:30:31.124Z,0.65
2022-08-07T18:33:27.276Z,0.60
2022-08-07T18:36:14.187Z,0.98
2022-08-07T18:40:04.921Z,0.80
2022-08-07T18:42:03.971Z,1.05
2022-08-07T18:45:43.518Z,1.00
2022-08-07T18:49:03.739Z,0.80
2022-08-07T18:52:33.854Z,0.80
2022-08-07T18:54:30.604Z,0.85
2022-08-07T18:57:29.413Z,0.70
2022-08-07T19:00:33.401Z,0.90
2022-08-07T19:03:11.876Z,1.20
2022-08-07T19:06:04.162Z,0.93
2022-08-07T19:08:58.468Z,0.88
2022-08-07T19:11:37.601Z,1.10
2022-08-07T19:14:08.051Z,0.80
2022-08-07T19:17:09.385Z,1.02
2022-08-07T19:19:45.310Z,1.10
2022-08-07T19:22:44.864Z,1.40
2022-08-07T19:26:23.664Z,1.15
2022-08-07T19:28:58.223Z,1.85
2022-08-07T19:31:41.947Z,1.15
2022-08-07T19:33:57.907Z,1.65
2022-08-07T19:36:27.679Z,1.17
2022-08-07T19:38:58.978Z,0.82
2022-08-07T19:41:44.568Z,0.98
2022-08-07T19:46:57.526Z,1.00
2022-08-07T19:52:18.562Z,0.93
2022-08-07T19:54:55.692Z,0.98
2022-08-07T19:57:59.984Z,0.77
2022-08-07T20:00:34.632Z,0.98
2022-08-07T20:03:05.945Z,1.10
2022-08-07T20:06:01.189Z,0.90
2022-08-07T20:08:32.918Z,0.90
2022-08-07T20:11:09.882Z,0.70
2022-08-07T20:14:07.316Z,0.80
2022-08-07T20:16:48.135Z,1.42
2022-08-07T20:19:25.052Z,0.90
2022-08-07T20:21:56.952Z,1.13
2022-08-07T20:24:32.313Z,0.90
2022-08-07T20:27:02.316Z,1.25
2022-08-07T20:29:48.855Z,0.70
2022-08-07T20:32:42.989Z,0.82
2022-08-07T20:35:22.025Z,0.93
2022-08-07T20:37:55.599Z,0.80
2022-08-07T20:40:33.172Z,1.00
2022-08-07T20:43:03.090Z,0.90
2022-08-07T20:46:29.060Z,0.77
2022-08-07T20:48:28.887Z,1.20
2022-08-07T20:50:59.924Z,1.15
2022-08-07T20:54:02.858Z,1.00
2022-08-07T20:56:16.525Z,0.95
2022-08-07T20:58:50.331Z,1.00
2022-08-07T21:01:21.150Z,1.10
2022-08-07T21:04:18.579Z,0.80
2022-08-07T21:06:46.610Z,1.02
2022-08-07T21:09:24.408Z,0.80
2022-08-07T21:11:57.005Z,1.00
2022-08-07T21:14:34.040Z,0.88
2022-08-07T21:18:00.575Z,0.93
2022-08-07T21:20:04.724Z,1.02
2022-08-07T21:22:53.507Z,1.02
2022-08-07T21:25:38.683Z,1.00
2022-08-07T21:28:18.861Z,1.20
2022-08-07T21:31:00.722Z,0.95
2022-08-07T21:33:44.868Z,0.90
2022-08-07T21:36:31.198Z,1.40
2022-08-07T21:39:45.270Z,1.13
2022-08-07T21:46:05.142Z,1.42
2022-08-07T21:48:29.012Z,1.40
2022-08-07T21:51:25.447Z,1.60
2022-08-07T21:54:14.181Z,1.23
2022-08-07T21:56:51.956Z,1.33
2022-08-07T22:00:04.444Z,1.10
2022-08-07T22:02:46.928Z,1.48
2022-08-07T22:05:43.853Z,1.25
2022-08-07T22:08:10.563Z,1.70
2022-08-07T22:10:38.397Z,1.40
2022-08-07T22:13:14.236Z,1.23
2022-08-07T22:16:45.110Z,2.22
2022-08-07T22:18:43.059Z,1.10
2022-08-07T22:21:15.483Z,1.35
2022-08-07T22:23:57.170Z,1.30
2022-08-07T22:26:37.282Z,1.85
2022-08-07T22:29:23.630Z,1.50
2022-08-07T22:32:20.506Z,1.60
2022-08-07T22:34:54.964Z,1.55
2022-08-07T22:38:01.710Z,1.40
2022-08-07T22:40:38.541Z,1.40
2022-08-07T22:43:14.306Z,1.45
2022-08-07T22:49:18.805Z,1.23
2022-08-07T22:51:54.820Z,1.20
2022-08-07T22:54:49.261Z,1.55
2022-08-07T22:57:26.014Z,1.48
2022-08-07T23:00:12.314Z,1.70
2022-08-07T23:06:10.128Z,1.33
2022-08-07T23:08:46.818Z,1.55
2022-08-07T23:11:25.112Z,1.90
2022-08-07T23:14:17.517Z,1.45
2022-08-07T23:17:02.572Z,1.63
2022-08-07T23:20:03.408Z,1.63
2022-08-07T23:22:30.990Z,1.42
2022-08-07T23:25:28.203Z,1.55
2022-08-07T23:28:22.745Z,1.52
2022-08-07T23:32:49.463Z,1.60
2022-08-07T23:34:39.739Z,1.55
2022-08-07T23:37:19.142Z,1.85
2022-08-07T23:40:07.407Z,1.40
2022-08-07T23:43:16.889Z,1.33
2022-08-07T23:46:23.780Z,1.75
2022-08-07T23:49:15.360Z,1.88
2022-08-07T23:53:00.112Z,1.80
2022-08-07T23:54:52.157Z,1.70
2022-08-07T23:57:22.399Z,1.73
